createdAt,value
2019-02-20T00:02:10.375Z,93.50
2019-02-20T00:04:41.321Z,93.50
2019-02-20T00:07:11.824Z,93.50
2019-02-20T00:09:42.825Z,93.80
2019-02-20T00:12:13.698Z,94.00
2019-02-20T00:14:44.242Z,94.00
2019-02-20T00:17:15.367Z,94.10
2019-02-20T00:19:46.130Z,94.10
2019-02-20T00:22:16.782Z,94.00
2019-02-20T00:24:47.633Z,94.10
2019-02-20T00:27:18.904Z,94.20
2019-02-20T00:29:49.604Z,94.20
2019-02-20T00:32:20.562Z,94.30
2019-02-20T00:34:51.320Z,94.50
2019-02-20T00:37:22.126Z,94.30
2019-02-20T00:39:54.229Z,94.30
2019-02-20T00:42:24.845Z,94.30
2019-02-20T00:45:03.506Z,94.20
2019-02-20T00:48:02.196Z,94.30
2019-02-20T00:50:33.789Z,94.50
2019-02-20T00:53:26.665Z,94.40
2019-02-20T00:55:57.428Z,94.40
2019-02-20T00:58:28.259Z,94.40
2019-02-20T01:00:59.203Z,94.40
2019-02-20T01:03:30.439Z,94.50
2019-02-20T01:06:01.660Z,94.50
2019-02-20T01:08:32.768Z,94.60
2019-02-20T01:11:08.898Z,94.70
2019-02-20T01:13:40.546Z,94.80
2019-02-20T01:16:11.414Z,94.80
2019-02-20T01:18:42.020Z,94.80
2019-02-20T01:21:13.643Z,94.80
2019-02-20T01:23:44.331Z,94.90
2019-02-20T01:26:15.197Z,94.90
2019-02-20T01:28:45.787Z,95.00
2019-02-20T01:31:17.214Z,94.90
2019-02-20T01:33:47.699Z,95.00
2019-02-20T01:36:18.749Z,95.20
2019-02-20T01:38:49.422Z,94.90
2019-02-20T01:41:20.262Z,94.80
2019-02-20T01:43:51.010Z,94.80
2019-02-20T01:46:21.673Z,94.90
2019-02-20T01:48:52.454Z,95.00
2019-02-20T01:51:23.065Z,94.90
2019-02-20T01:53:53.933Z,94.80
2019-02-20T01:56:24.815Z,95.10
2019-02-20T01:58:56.006Z,94.90
2019-02-20T02:01:26.900Z,94.90
2019-02-20T02:03:57.794Z,94.90
2019-02-20T02:06:28.474Z,94.70
2019-02-20T02:08:59.825Z,94.60
2019-02-20T02:11:30.581Z,94.60
2019-02-20T02:14:01.388Z,94.70
2019-02-20T02:16:32.137Z,94.70
2019-02-20T02:19:02.818Z,94.70
2019-02-20T02:21:34.331Z,94.60
2019-02-20T02:24:04.962Z,94.60
2019-02-20T02:26:35.776Z,94.30
2019-02-20T02:29:06.790Z,94.50
2019-02-20T02:31:37.641Z,94.60
2019-02-20T02:34:08.158Z,94.60
2019-02-20T02:36:38.977Z,94.50
2019-02-20T02:39:09.521Z,94.60
2019-02-20T02:41:41.462Z,94.60
2019-02-20T02:44:12.111Z,94.40
2019-02-20T02:46:43.169Z,94.50
2019-02-20T02:49:13.776Z,94.50
2019-02-20T02:51:44.605Z,94.50
2019-02-20T02:54:15.460Z,94.50
2019-02-20T02:56:46.131Z,94.40
2019-02-20T02:59:16.787Z,94.50
2019-02-20T03:01:47.340Z,94.60
2019-02-20T03:04:18.931Z,94.60
2019-02-20T03:06:49.825Z,94.40
2019-02-20T03:09:20.673Z,94.30
2019-02-20T03:11:51.389Z,94.20
2019-02-20T03:14:22.101Z,94.10
2019-02-20T03:16:52.774Z,94.20
2019-02-20T03:19:23.971Z,93.90
2019-02-20T03:21:54.662Z,93.70
2019-02-20T03:24:25.499Z,93.60
2019-02-20T03:26:56.124Z,93.60
2019-02-20T03:29:26.986Z,93.60
2019-02-20T03:31:58.646Z,93.50
2019-02-20T03:34:29.791Z,93.10
2019-02-20T03:37:00.681Z,92.90
2019-02-20T03:39:31.662Z,92.80
2019-02-20T03:42:03.414Z,92.90
2019-02-20T03:44:34.270Z,92.80
2019-02-20T03:47:04.884Z,92.70
2019-02-20T03:49:36.332Z,92.70
2019-02-20T03:52:06.838Z,92.40
2019-02-20T03:54:38.739Z,92.30
2019-02-20T03:57:09.346Z,92.50
2019-02-20T03:59:40.362Z,92.30
2019-02-20T04:02:11.174Z,92.30
2019-02-20T04:04:41.927Z,92.10
2019-02-20T04:07:12.581Z,92.00
2019-02-20T04:09:43.047Z,92.00
2019-02-20T04:12:14.873Z,91.70
2019-02-20T04:14:45.437Z,91.00
2019-02-20T04:17:16.708Z,90.80
2019-02-20T04:19:47.503Z,90.60
2019-02-20T04:22:18.238Z,89.80
2019-02-20T04:24:48.857Z,89.50
2019-02-20T04:27:19.926Z,89.50
2019-02-20T04:29:50.563Z,89.20
2019-02-20T04:32:21.314Z,89.20
2019-02-20T04:34:52.005Z,89.00
2019-02-20T04:37:22.868Z,89.10
2019-02-20T04:39:54.662Z,88.90
2019-02-20T04:42:25.401Z,89.00
2019-02-20T04:44:56.538Z,89.00
2019-02-20T04:47:27.310Z,88.90
2019-02-20T04:49:57.990Z,88.90
2019-02-20T04:52:29.140Z,89.10
2019-02-20T04:55:00.129Z,88.60
2019-02-20T04:57:31.414Z,89.00
2019-02-20T05:00:02.152Z,89.10
2019-02-20T05:02:34.606Z,89.20
2019-02-20T05:05:06.111Z,88.70
2019-02-20T05:07:36.853Z,89.00
2019-02-20T05:10:08.761Z,89.00
2019-02-20T05:12:39.784Z,89.00
2019-02-20T05:15:10.629Z,89.10
2019-02-20T05:17:41.650Z,89.20
2019-02-20T05:20:12.599Z,88.90
2019-02-20T05:22:43.506Z,88.70
2019-02-20T05:25:14.228Z,89.70
2019-02-20T05:27:44.909Z,89.70
2019-02-20T05:30:15.405Z,89.00
2019-02-20T05:32:45.995Z,88.40
2019-02-20T05:35:16.601Z,88.40
2019-02-20T05:37:47.283Z,88.30
2019-02-20T05:40:17.861Z,88.60
2019-02-20T05:42:48.748Z,88.30
2019-02-20T05:45:19.767Z,88.50
2019-02-20T05:47:50.476Z,88.40
2019-02-20T05:50:21.286Z,88.40
2019-02-20T05:52:52.056Z,89.10
2019-02-20T05:55:22.589Z,88.40
2019-02-20T05:57:53.390Z,88.50
2019-02-20T06:00:25.416Z,88.30
2019-02-20T06:02:55.857Z,87.90
2019-02-20T06:05:26.726Z,87.80
2019-02-20T06:07:57.592Z,87.50
2019-02-20T06:10:28.524Z,87.60
2019-02-20T06:12:59.246Z,88.00
2019-02-20T06:15:30.790Z,88.00
2019-02-20T06:18:01.844Z,88.10
2019-02-20T06:20:33.158Z,87.00
2019-02-20T06:23:03.912Z,87.00
2019-02-20T06:25:34.849Z,87.00
2019-02-20T06:28:06.424Z,87.40
2019-02-20T06:30:36.891Z,87.50
2019-02-20T06:33:07.592Z,87.50
2019-02-20T06:35:38.613Z,87.70
2019-02-20T06:38:10.943Z,87.10
2019-02-20T06:40:42.187Z,87.10
2019-02-20T06:43:12.987Z,87.50
2019-02-20T06:45:43.873Z,87.80
2019-02-20T06:48:14.797Z,87.60
2019-02-20T06:50:45.805Z,87.90
2019-02-20T06:53:16.362Z,88.40
2019-02-20T06:55:47.374Z,88.10
2019-02-20T06:58:18.013Z,88.30
2019-02-20T07:00:49.387Z,88.10
2019-02-20T07:03:20.285Z,88.20
2019-02-20T07:06:30.972Z,88.90
2019-02-20T07:09:33.236Z,88.80
2019-02-20T07:12:41.963Z,87.30
2019-02-20T07:15:49.179Z,86.00
2019-02-20T07:19:00.208Z,86.10
2019-02-20T07:22:03.483Z,85.60
2019-02-20T07:25:14.275Z,85.90
2019-02-20T07:27:58.078Z,85.50
2019-02-20T07:30:29.064Z,85.50
2019-02-20T07:33:00.542Z,85.00
2019-02-20T07:35:31.141Z,84.90
2019-02-20T07:38:01.863Z,85.10
2019-02-20T07:40:34.111Z,84.40
2019-02-20T07:43:05.028Z,83.70
2019-02-20T07:45:35.929Z,82.10
2019-02-20T07:48:07.173Z,81.30
2019-02-20T07:50:38.110Z,80.90
2019-02-20T07:53:10.898Z,80.50
2019-02-20T07:55:41.791Z,81.30
2019-02-20T07:58:12.721Z,81.50
2019-02-20T08:00:43.582Z,82.20
2019-02-20T08:03:15.355Z,81.50
2019-02-20T08:05:46.382Z,81.40
2019-02-20T08:08:17.025Z,82.00
2019-02-20T08:10:48.257Z,83.00
2019-02-20T08:13:19.357Z,83.30
2019-02-20T08:15:50.411Z,82.40
2019-02-20T08:18:21.245Z,83.30
2019-02-20T08:20:52.075Z,82.50
2019-02-20T08:23:23.703Z,83.00
2019-02-20T08:25:54.447Z,82.80
2019-02-20T08:28:25.587Z,83.50
2019-02-20T08:30:56.330Z,83.80
2019-02-20T08:33:27.025Z,84.30
2019-02-20T08:35:57.796Z,84.40
2019-02-20T08:38:28.635Z,84.30
2019-02-20T08:40:59.539Z,84.10
2019-02-20T08:43:30.214Z,84.80
2019-02-20T08:46:01.097Z,84.70
2019-02-20T08:48:31.748Z,83.60
2019-02-20T08:51:02.494Z,84.60
2019-02-20T08:53:33.320Z,84.90
2019-02-20T08:56:04.492Z,84.30
2019-02-20T08:58:35.622Z,84.40
2019-02-20T09:01:06.966Z,83.60
2019-02-20T09:03:38.514Z,84.10
2019-02-20T09:06:09.573Z,84.40
2019-02-20T09:08:40.330Z,84.00
2019-02-20T09:11:11.094Z,83.50
2019-02-20T09:13:42.498Z,83.60
2019-02-20T09:16:13.545Z,83.50
2019-02-20T09:18:44.352Z,83.40
2019-02-20T09:21:15.192Z,83.20
2019-02-20T09:23:46.026Z,83.10
2019-02-20T09:26:17.074Z,82.80
2019-02-20T09:28:48.128Z,82.50
2019-02-20T09:31:19.240Z,82.10
2019-02-20T09:33:50.333Z,81.60
2019-02-20T09:36:21.294Z,81.90
2019-02-20T09:38:52.371Z,81.60
2019-02-20T09:41:23.316Z,80.90
2019-02-20T09:43:54.383Z,80.00
2019-02-20T09:46:25.281Z,80.10
2019-02-20T09:48:56.347Z,79.90
2019-02-20T09:51:27.255Z,79.80
2019-02-20T09:53:58.243Z,79.50
2019-02-20T09:56:29.002Z,78.50
2019-02-20T09:59:00.225Z,77.80
2019-02-20T10:01:32.187Z,77.60
2019-02-20T10:04:03.339Z,77.60
2019-02-20T10:06:33.963Z,78.00
2019-02-20T10:09:05.589Z,77.50
2019-02-20T10:11:36.771Z,76.90
2019-02-20T10:14:08.552Z,76.90
2019-02-20T10:16:39.520Z,77.00
2019-02-20T10:19:10.603Z,77.00
2019-02-20T10:21:41.810Z,77.10
2019-02-20T10:24:12.730Z,77.10
2019-02-20T10:26:43.458Z,76.90
2019-02-20T10:29:14.340Z,76.60
2019-02-20T10:31:46.457Z,76.70
2019-02-20T10:34:17.298Z,76.30
2019-02-20T10:36:49.437Z,76.30
2019-02-20T10:39:20.350Z,76.30
2019-02-20T10:41:51.729Z,75.60
2019-02-20T10:44:22.332Z,75.10
2019-02-20T10:46:53.308Z,75.30
2019-02-20T10:49:23.862Z,76.00
2019-02-20T10:51:54.868Z,75.30
2019-02-20T10:54:25.624Z,75.60
2019-02-20T10:56:57.089Z,75.90
2019-02-20T10:59:27.963Z,75.80
2019-02-20T11:01:58.998Z,75.50
2019-02-20T11:04:30.878Z,76.10
2019-02-20T11:07:01.756Z,75.80
2019-02-20T11:09:34.229Z,76.10
2019-02-20T11:12:05.213Z,76.10
2019-02-20T11:14:37.731Z,76.10
2019-02-20T11:17:09.133Z,76.70
2019-02-20T11:19:39.781Z,77.10
2019-02-20T11:22:10.559Z,77.10
2019-02-20T11:24:41.779Z,78.60
2019-02-20T11:27:12.809Z,76.80
2019-02-20T11:29:43.729Z,75.90
2019-02-20T11:32:14.392Z,74.80
2019-02-20T11:34:45.115Z,73.90
2019-02-20T11:37:16.288Z,73.70
2019-02-20T11:39:48.635Z,74.90
2019-02-20T11:42:19.617Z,74.20
2019-02-20T11:44:50.545Z,74.20
2019-02-20T11:47:21.224Z,72.40
2019-02-20T11:49:51.963Z,73.30
2019-02-20T11:52:22.703Z,73.30
2019-02-20T11:54:53.386Z,74.20
2019-02-20T11:57:24.375Z,73.40
2019-02-20T11:59:55.372Z,74.10
2019-02-20T12:02:26.705Z,74.00
2019-02-20T12:04:57.756Z,73.90
2019-02-20T12:07:28.721Z,74.50
2019-02-20T12:09:59.690Z,74.80
2019-02-20T12:12:30.471Z,75.70
2019-02-20T12:15:01.370Z,75.70
2019-02-20T12:17:34.275Z,75.70
2019-02-20T12:20:05.446Z,76.30
2019-02-20T12:22:37.001Z,77.30
2019-02-20T12:25:08.472Z,78.20
2019-02-20T12:27:39.253Z,78.20
2019-02-20T12:30:11.414Z,79.30
2019-02-20T12:32:42.595Z,80.00
2019-02-20T12:35:13.413Z,80.70
2019-02-20T12:37:43.955Z,81.10
2019-02-20T12:40:14.804Z,80.70
2019-02-20T12:42:45.821Z,80.80
2019-02-20T12:45:16.958Z,79.70
2019-02-20T12:47:47.443Z,79.00
2019-02-20T12:50:18.280Z,78.80
2019-02-20T12:52:48.783Z,77.70
2019-02-20T12:55:19.547Z,75.50
2019-02-20T12:57:50.251Z,74.70
2019-02-20T13:00:22.476Z,75.00
2019-02-20T13:02:53.189Z,74.10
2019-02-20T13:05:24.220Z,73.10
2019-02-20T13:07:54.942Z,71.80
2019-02-20T13:10:25.870Z,72.30
2019-02-20T13:12:56.896Z,72.30
2019-02-20T13:15:27.593Z,72.30
2019-02-20T13:17:58.444Z,72.50
2019-02-20T13:20:29.257Z,72.30
2019-02-20T13:23:00.227Z,73.00
2019-02-20T13:25:30.926Z,72.50
2019-02-20T13:28:01.842Z,72.30
2019-02-20T13:30:32.540Z,72.80
2019-02-20T13:33:03.262Z,72.80
2019-02-20T13:35:33.931Z,73.20
2019-02-20T13:38:04.997Z,73.50
2019-02-20T13:40:35.890Z,73.40
2019-02-20T13:43:06.928Z,72.80
2019-02-20T13:45:37.801Z,72.30
2019-02-20T13:48:08.977Z,72.90
2019-02-20T13:50:39.668Z,72.20
2019-02-20T13:53:10.803Z,71.90
2019-02-20T13:55:42.209Z,72.20
2019-02-20T13:58:13.160Z,72.50
2019-02-20T14:00:43.981Z,73.40
2019-02-20T14:03:14.921Z,73.50
2019-02-20T14:05:45.715Z,72.90
2019-02-20T14:08:16.831Z,72.90
2019-02-20T14:10:47.787Z,72.20
2019-02-20T14:13:18.483Z,73.00
2019-02-20T14:15:50.690Z,73.00
2019-02-20T14:18:21.516Z,72.50
2019-02-20T14:20:52.529Z,73.00
2019-02-20T14:23:24.679Z,72.60
2019-02-20T14:25:55.300Z,72.70
2019-02-20T14:28:26.412Z,73.20
2019-02-20T14:30:57.465Z,73.10
2019-02-20T14:33:28.278Z,72.30
2019-02-20T14:35:59.424Z,72.20
2019-02-20T14:38:32.051Z,72.20
2019-02-20T14:41:03.198Z,72.10
2019-02-20T14:43:34.121Z,71.70
2019-02-20T14:46:05.101Z,71.00
2019-02-20T14:48:36.078Z,69.90
2019-02-20T14:51:08.073Z,69.80
2019-02-20T14:53:39.106Z,68.60
2019-02-20T14:56:10.369Z,68.70
2019-02-20T14:58:41.487Z,68.90
2019-02-20T15:01:13.199Z,68.60
2019-02-20T15:03:43.908Z,69.40
2019-02-20T15:06:14.849Z,69.50
2019-02-20T15:08:47.735Z,68.90
2019-02-20T15:11:18.446Z,69.60
2019-02-20T15:13:50.346Z,69.20
2019-02-20T15:16:21.340Z,69.90
2019-02-20T15:18:52.093Z,69.90
2019-02-20T15:21:23.209Z,70.20
2019-02-20T15:23:54.190Z,69.70
2019-02-20T15:26:24.938Z,69.40
2019-02-20T15:28:55.922Z,69.80
2019-02-20T15:31:33.379Z,69.20
2019-02-20T15:33:59.230Z,69.40
2019-02-20T15:36:30.095Z,68.90
2019-02-20T15:39:00.906Z,69.40
2019-02-20T15:41:33.748Z,69.30
2019-02-20T15:44:04.882Z,69.70
2019-02-20T15:46:36.139Z,70.00
2019-02-20T15:49:07.399Z,70.50
2019-02-20T15:51:38.410Z,70.40
2019-02-20T15:54:09.299Z,70.90
2019-02-20T15:56:40.118Z,70.80
2019-02-20T15:59:10.876Z,70.80
2019-02-20T16:01:41.826Z,70.40
2019-02-20T16:04:12.769Z,70.60
2019-02-20T16:06:44.413Z,71.10
2019-02-20T16:09:15.614Z,71.20
2019-02-20T16:11:46.560Z,72.00
2019-02-20T16:14:17.284Z,71.90
2019-02-20T16:16:49.077Z,71.80
2019-02-20T16:19:19.926Z,71.90
2019-02-20T16:21:50.973Z,72.00
2019-02-20T16:24:22.011Z,71.80
2019-02-20T16:26:53.201Z,72.50
2019-02-20T16:29:24.330Z,72.80
2019-02-20T16:31:55.196Z,73.00
2019-02-20T16:34:26.191Z,73.20
2019-02-20T16:36:58.199Z,73.10
2019-02-20T16:39:29.257Z,73.30
2019-02-20T16:42:01.999Z,73.30
2019-02-20T16:44:34.363Z,73.50
2019-02-20T16:47:07.011Z,73.70
2019-02-20T16:49:38.833Z,73.30
2019-02-20T16:52:10.655Z,73.40
2019-02-20T16:54:42.410Z,73.90
2019-02-20T16:57:14.462Z,73.30
2019-02-20T16:59:45.216Z,73.30
2019-02-20T17:02:15.922Z,73.40
2019-02-20T17:04:47.218Z,73.20
2019-02-20T17:07:19.623Z,73.40
2019-02-20T17:09:55.944Z,73.50
2019-02-20T17:12:30.423Z,73.40
2019-02-20T17:15:02.659Z,73.50
2019-02-20T17:17:35.883Z,73.60
2019-02-20T17:20:08.456Z,73.50
2019-02-20T17:22:39.255Z,73.80
2019-02-20T17:25:11.793Z,73.70
2019-02-20T17:27:42.792Z,73.60
2019-02-20T17:30:14.688Z,73.20
2019-02-20T17:32:46.021Z,73.70
2019-02-20T17:35:17.734Z,73.70
2019-02-20T17:37:48.660Z,73.80
2019-02-20T17:40:19.899Z,73.80
2019-02-20T17:42:53.010Z,73.80
2019-02-20T17:45:23.877Z,74.00
2019-02-20T17:47:55.419Z,74.00
2019-02-20T17:50:26.580Z,74.00
2019-02-20T17:52:57.195Z,74.10
2019-02-20T17:55:27.848Z,74.20
2019-02-20T17:57:58.865Z,74.10
2019-02-20T18:00:30.561Z,74.50
2019-02-20T18:03:01.828Z,74.30
2019-02-20T18:05:33.176Z,74.50
2019-02-20T18:08:04.496Z,74.30
2019-02-20T18:10:35.783Z,74.40
2019-02-20T18:13:06.805Z,74.40
2019-02-20T18:15:38.012Z,74.30
2019-02-20T18:18:09.209Z,74.20
2019-02-20T18:20:40.177Z,74.20
2019-02-20T18:23:10.862Z,74.40
2019-02-20T18:25:41.936Z,74.30
2019-02-20T18:28:12.821Z,73.90
2019-02-20T18:30:45.185Z,73.80
2019-02-20T18:33:16.371Z,73.90
2019-02-20T18:35:47.564Z,73.20
2019-02-20T18:38:18.734Z,73.00
2019-02-20T18:40:49.885Z,73.20
2019-02-20T18:43:21.839Z,72.40
2019-02-20T18:45:52.967Z,72.30
2019-02-20T18:48:24.221Z,72.30
2019-02-20T18:50:55.472Z,71.60
2019-02-20T18:53:26.142Z,71.60
2019-02-20T18:55:57.096Z,71.00
2019-02-20T18:58:33.923Z,70.90
2019-02-20T19:01:00.860Z,71.40
2019-02-20T19:03:32.076Z,71.40
2019-02-20T19:06:03.392Z,71.40
2019-02-20T19:08:42.830Z,71.10
2019-02-20T19:11:29.918Z,71.70
2019-02-20T19:14:23.642Z,71.40
2019-02-20T19:17:29.952Z,71.50
2019-02-20T19:20:15.551Z,71.50
2019-02-20T19:23:33.423Z,71.50
2019-02-20T19:26:30.408Z,71.40
2019-02-20T19:29:32.064Z,71.60
2019-02-20T19:32:30.353Z,71.50
2019-02-20T19:35:36.139Z,71.10
2019-02-20T19:38:41.221Z,71.30
2019-02-20T19:42:03.890Z,70.90
2019-02-20T19:45:00.465Z,71.20
2019-02-20T19:47:50.432Z,71.20
2019-02-20T19:50:41.252Z,71.40
2019-02-20T19:53:40.884Z,71.10
2019-02-20T19:56:53.552Z,71.50
2019-02-20T20:00:01.348Z,71.40
2019-02-20T20:03:00.386Z,71.80
2019-02-20T20:06:06.873Z,71.40
2019-02-20T20:09:25.055Z,71.40
2019-02-20T20:12:36.908Z,71.20
2019-02-20T20:15:57.585Z,70.80
2019-02-20T20:18:56.142Z,70.40
2019-02-20T20:22:00.982Z,70.20
2019-02-20T20:25:24.387Z,70.30
2019-02-20T20:28:22.590Z,70.00
2019-02-20T20:32:02.858Z,69.60
2019-02-20T20:35:16.174Z,69.60
2019-02-20T20:37:55.173Z,69.50
2019-02-20T20:40:35.195Z,69.40
2019-02-20T20:43:42.868Z,69.30
2019-02-20T20:46:30.828Z,69.30
2019-02-20T20:49:31.586Z,69.30
2019-02-20T20:52:55.461Z,69.30
2019-02-20T20:56:07.655Z,69.40
2019-02-20T20:59:37.563Z,69.50
2019-02-20T21:02:44.509Z,69.60
2019-02-20T21:05:56.161Z,69.80
2019-02-20T21:08:58.082Z,69.80
2019-02-20T21:12:01.421Z,69.80
2019-02-20T21:14:43.393Z,70.30
2019-02-20T21:17:46.749Z,70.70
2019-02-20T21:21:00.920Z,70.90
2019-02-20T21:23:56.101Z,71.30
2019-02-20T21:27:11.350Z,71.00
2019-02-20T21:30:28.338Z,71.30
2019-02-20T21:33:57.686Z,71.20
2019-02-20T21:37:12.235Z,71.40
2019-02-20T21:39:57.839Z,71.20
2019-02-20T21:43:07.150Z,71.40
2019-02-20T21:46:22.732Z,71.40
2019-02-20T21:49:34.867Z,71.50
2019-02-20T21:52:34.442Z,71.80
2019-02-20T21:55:31.202Z,71.70
2019-02-20T21:58:33.157Z,72.50
2019-02-20T22:01:22.565Z,73.30
2019-02-20T22:04:27.254Z,72.50
2019-02-20T22:07:36.595Z,71.40
2019-02-20T22:10:49.788Z,71.70
2019-02-20T22:13:35.875Z,71.50
2019-02-20T22:16:48.133Z,71.80
2019-02-20T22:19:45.306Z,71.30
2019-02-20T22:22:55.139Z,71.30
2019-02-20T22:25:55.917Z,71.20
2019-02-20T22:29:07.755Z,71.60
2019-02-20T22:32:19.601Z,71.90
2019-02-20T22:35:06.257Z,72.00
2019-02-20T22:38:08.679Z,72.10
2019-02-20T22:41:21.270Z,72.80
2019-02-20T22:44:29.498Z,73.50
2019-02-20T22:47:44.135Z,74.40
2019-02-20T22:50:40.051Z,74.00
2019-02-20T22:53:36.235Z,74.10
2019-02-20T22:56:56.150Z,73.80
2019-02-20T22:59:41.784Z,73.80
2019-02-20T23:03:05.989Z,74.00
2019-02-20T23:06:22.217Z,73.80
2019-02-20T23:09:18.192Z,73.50
2019-02-20T23:12:00.297Z,73.50
2019-02-20T23:14:41.049Z,73.50
2019-02-20T23:17:11.949Z,73.00
2019-02-20T23:19:42.740Z,72.90
2019-02-20T23:22:13.563Z,73.00
2019-02-20T23:24:45.112Z,72.80
2019-02-20T23:27:15.953Z,72.70
2019-02-20T23:29:46.715Z,72.80
2019-02-20T23:32:17.715Z,72.50
2019-02-20T23:34:48.565Z,72.70
2019-02-20T23:37:19.363Z,72.40
2019-02-20T23:39:49.945Z,72.50
2019-02-20T23:42:21.182Z,72.40
2019-02-20T23:44:51.809Z,73.10
2019-02-20T23:47:23.313Z,72.40
2019-02-20T23:49:56.565Z,72.50
2019-02-20T23:52:27.748Z,72.80
2019-02-20T23:54:59.000Z,72.80
2019-02-20T23:57:29.675Z,72.60
